Weather at Pajaro Loco Airfield [CLOSED]

Public forecast

Using degrees Celsius for public forecast. Weather courtesy of forecast.io.

Closest aviation weather report (METAR) to Pajaro Loco Airfield

Closest report is Udine-Rivolto Air Base, 12.6 nm (23.4 km) ENE.

2024/07/17 12:55 (retrieved 20 minutes ago)

LIPI 171255Z 36003KT CAVOK 33/20 Q1013 RMK SCT SCT170 VIS MIN 9999 WIND THR06 VRB02KT WIND THR24 08003KT BLU

Closest aviation forecast (TAF) to Pajaro Loco Airfield

Closest forecast is Treviso Antonio Canova Airport, 28.3 nm (52.4 km) WSW.

2024/07/17 12:00 (retrieved 1 hour ago)

TAF LIPH 171100Z 1712/1812 05006KT 9999 FEW060